Time;durP1;ratioP1;P1;durP2;ratioP2;P2;SDS_P1;SDS_P2;PMS_P1;PMS_P2;Temp;Humidity;BMP_temperature;BMP_pressure;BME280_temperature;BME280_humidity;BME280_pressure;Samples;Min_cycle;Max_cycle;Signal;HPM_P1;HPM_P2
2022/03/03 00:01:39;;;;;;;19.77;10.98;;;;;;;0.56;51.11;93653.97;5010602;28;20605;-76
2022/03/03 00:04:05;;;;;;;20.83;11.40;;;;;;;0.66;51.08;93653.22;5016214;28;20083;-74
2022/03/03 00:06:30;;;;;;;14.75;9.63;;;;;;;0.72;50.77;93647.00;5007891;28;20049;-77
2022/03/03 00:08:56;;;;;;;17.40;8.82;;;;;;;0.38;50.75;93615.16;5019088;28;20466;-75
2022/03/03 00:11:22;;;;;;;13.73;8.25;;;;;;;0.25;51.43;93636.56;5007844;28;20026;-73
2022/03/03 00:13:47;;;;;;;11.98;8.60;;;;;;;0.21;51.51;93630.25;5016520;28;20029;-75
2022/03/03 00:16:13;;;;;;;13.00;8.48;;;;;;;0.17;52.17;93647.47;5009091;28;20783;-76
2022/03/03 00:18:38;;;;;;;15.15;10.32;;;;;;;0.15;52.18;93623.41;5019347;28;20059;-77
2022/03/03 00:21:04;;;;;;;14.10;9.43;;;;;;;0.13;52.49;93644.59;5011180;28;20039;-76
2022/03/03 00:23:30;;;;;;;11.43;7.80;;;;;;;-0.12;52.47;93624.28;5003290;28;20215;-75
2022/03/03 00:25:56;;;;;;;13.68;7.63;;;;;;;-0.14;52.71;93618.50;5014505;28;20430;-74
2022/03/03 00:28:21;;;;;;;12.77;8.88;;;;;;;-0.22;52.81;93611.16;5013046;28;20377;-76
2022/03/03 00:30:47;;;;;;;19.00;9.32;;;;;;;-0.14;52.89;93639.41;5011115;28;20033;-76
2022/03/03 00:33:13;;;;;;;15.40;8.80;;;;;;;-0.17;53.29;93623.47;5014266;28;20049;-76
2022/03/03 00:35:38;;;;;;;16.58;8.63;;;;;;;-0.26;53.65;93612.69;5015531;28;20127;-76
2022/03/03 00:38:04;;;;;;;13.57;7.50;;;;;;;-0.01;53.25;93621.75;5014958;28;20487;-74
2022/03/03 00:40:30;;;;;;;12.63;8.18;;;;;;;0.08;52.77;93613.19;5010184;28;20408;-75
2022/03/03 00:42:55;;;;;;;10.57;7.60;;;;;;;0.09;52.71;93600.88;5006453;28;20553;-76
2022/03/03 00:45:22;;;;;;;12.07;8.52;;;;;;;0.11;52.53;93607.44;5015190;28;20445;-75
2022/03/03 00:47:47;;;;;;;10.32;7.55;;;;;;;0.22;52.62;93624.75;5006482;28;20944;-75
2022/03/03 00:50:12;;;;;;;12.10;7.45;;;;;;;0.25;52.34;93633.94;5008526;28;20471;-74
2022/03/03 00:52:38;;;;;;;13.38;7.43;;;;;;;0.15;52.54;93626.03;5012265;28;20107;-77
2022/03/03 00:55:04;;;;;;;14.50;7.50;;;;;;;0.19;52.38;93621.88;5010942;28;20044;-76
2022/03/03 00:57:30;;;;;;;12.80;7.90;;;;;;;0.11;53.02;93632.78;5012883;28;20120;-74
2022/03/03 00:59:56;;;;;;;12.60;6.93;;;;;;;0.17;52.97;93619.50;5010699;28;20119;-76
2022/03/03 01:02:21;;;;;;;13.77;7.32;;;;;;;0.28;52.76;93620.34;5008981;28;20578;-74
2022/03/03 01:04:46;;;;;;;11.02;7.68;;;;;;;0.56;52.38;93637.47;5013382;28;20850;-74
2022/03/03 01:07:12;;;;;;;10.18;7.20;;;;;;;0.54;51.94;93629.91;5009971;28;20122;-76
2022/03/03 01:09:37;;;;;;;13.52;8.70;;;;;;;0.54;52.33;93635.16;5007366;28;20342;-77
2022/03/03 01:12:03;;;;;;;13.07;7.55;;;;;;;0.64;51.89;93624.69;5011701;28;20041;-76
2022/03/03 01:14:29;;;;;;;12.85;8.23;;;;;;;0.73;51.89;93636.28;5010548;28;20076;-76
2022/03/03 01:16:54;;;;;;;15.63;8.88;;;;;;;0.61;51.87;93613.94;5007376;28;20036;-75
2022/03/03 01:19:20;;;;;;;15.38;7.90;;;;;;;0.72;51.77;93629.44;5007992;28;20064;-76
2022/03/03 01:21:47;;;;;;;15.93;8.07;;;;;;;0.91;51.56;93619.31;5013561;28;20128;-73
2022/03/03 01:24:13;;;;;;;16.00;8.77;;;;;;;0.79;51.20;93610.88;5017667;28;20572;-75
2022/03/03 01:26:38;;;;;;;18.92;8.63;;;;;;;0.92;51.19;93620.09;5011225;28;20056;-77
2022/03/03 01:29:04;;;;;;;14.10;7.55;;;;;;;0.62;51.57;93608.47;5015941;28;20662;-76
2022/03/03 01:31:30;;;;;;;12.20;8.40;;;;;;;0.81;51.61;93621.88;5017726;28;20374;-74
2022/03/03 01:33:56;;;;;;;12.80;8.30;;;;;;;0.73;51.93;93597.00;5015770;28;20063;-77
2022/03/03 01:36:21;;;;;;;13.48;9.02;;;;;;;0.89;51.73;93613.53;5015809;28;20045;-77
2022/03/03 01:38:46;;;;;;;14.98;7.95;;;;;;;0.75;51.39;93584.44;5008577;28;20929;-77
2022/03/03 01:41:12;;;;;;;13.52;8.85;;;;;;;0.69;51.62;93585.44;5015722;28;20409;-72
2022/03/03 01:43:38;;;;;;;13.23;8.05;;;;;;;0.78;51.45;93573.47;5015446;28;20036;-70
2022/03/03 01:46:04;;;;;;;13.48;8.85;;;;;;;0.97;51.52;93599.94;5014028;28;20628;-72
2022/03/03 01:48:31;;;;;;;13.88;8.43;;;;;;;0.91;51.92;93602.81;5020353;28;20682;-73
2022/03/03 01:50:56;;;;;;;16.45;9.48;;;;;;;0.96;51.63;93594.97;5014846;28;20037;-71
2022/03/03 01:53:21;;;;;;;14.05;8.40;;;;;;;1.10;51.25;93573.25;5017145;28;20035;-72
2022/03/03 01:55:50;;;;;;;14.75;8.63;;;;;;;1.18;51.12;93592.94;5012529;28;20482;-72
2022/03/03 01:58:16;;;;;;;12.90;8.82;;;;;;;0.89;51.49;93589.97;5015398;28;20029;-76
2022/03/03 02:00:44;;;;;;;15.73;9.10;;;;;;;0.84;51.51;93592.56;5010982;28;20033;-75
2022/03/03 02:03:10;;;;;;;13.07;8.02;;;;;;;0.86;52.03;93585.25;5016659;28;20063;-76
2022/03/03 02:05:37;;;;;;;13.43;8.23;;;;;;;0.88;51.87;93579.75;5016507;28;23459;-78
2022/03/03 02:08:03;;;;;;;14.55;8.77;;;;;;;0.58;51.83;93546.44;5011908;28;20152;-76
2022/03/03 02:10:28;;;;;;;15.27;9.18;;;;;;;0.79;52.34;93579.47;5014814;28;20044;-77
2022/03/03 02:12:56;;;;;;;13.38;8.80;;;;;;;0.76;52.00;93580.78;5015065;28;20036;-72
2022/03/03 02:15:21;;;;;;;16.50;8.88;;;;;;;0.59;52.60;93561.09;5017858;28;20045;-76
2022/03/03 02:17:47;;;;;;;20.65;9.70;;;;;;;0.79;52.59;93580.25;5015371;28;20504;-76
2022/03/03 02:20:19;;;;;;;19.58;8.93;;;;;;;0.68;52.48;93583.91;5011880;28;20931;-75
2022/03/03 02:22:44;;;;;;;15.52;9.57;;;;;;;0.62;52.50;93582.31;5014157;28;20426;-76
2022/03/03 02:25:11;;;;;;;19.73;10.13;;;;;;;0.65;52.73;93581.78;5016624;28;20072;-74
2022/03/03 02:27:37;;;;;;;15.80;9.38;;;;;;;0.45;53.06;93579.09;5021617;28;20454;-76
2022/03/03 02:30:04;;;;;;;14.15;9.05;;;;;;;0.03;53.24;93513.78;5016832;28;20037;-76
2022/03/03 02:32:29;;;;;;;13.10;9.25;;;;;;;0.31;53.88;93591.06;5015477;28;20120;-74
2022/03/03 02:34:54;;;;;;;13.82;8.32;;;;;;;0.11;54.32;93562.19;5015229;28;20035;-77
2022/03/03 02:37:20;;;;;;;15.05;9.32;;;;;;;0.13;54.22;93581.03;5012521;28;20520;-75
2022/03/03 02:39:46;;;;;;;18.05;9.00;;;;;;;0.32;54.65;93592.63;5014805;28;20889;-78
2022/03/03 02:42:12;;;;;;;15.25;9.65;;;;;;;0.50;54.20;93594.81;5012792;28;20053;-74
2022/03/03 02:44:38;;;;;;;15.77;9.75;;;;;;;0.39;53.77;93561.81;5016091;28;20049;-78
2022/03/03 02:47:04;;;;;;;21.23;8.70;;;;;;;0.46;53.58;93569.41;5014667;28;20036;-76
2022/03/03 02:49:29;;;;;;;15.88;10.15;;;;;;;0.63;53.52;93581.25;5010980;28;20069;-78
2022/03/03 02:51:55;;;;;;;15.95;9.95;;;;;;;0.73;53.57;93583.13;5014963;28;20133;-77
2022/03/03 02:54:21;;;;;;;18.52;10.05;;;;;;;0.49;53.24;93569.69;5016760;28;20045;-77
2022/03/03 02:59:31;;;;;;;17.88;9.32;;;;;;;0.43;54.54;93593.47;5012505;28;20682;-74
2022/03/03 03:01:57;;;;;;;14.77;9.10;;;;;;;0.31;54.33;93577.97;5016825;28;23618;-77
2022/03/03 03:04:25;;;;;;;16.63;8.75;;;;;;;0.50;54.51;93586.16;5014739;28;20848;-75
2022/03/03 03:06:51;;;;;;;17.10;10.50;;;;;;;0.80;54.22;93587.06;5015222;28;20056;-77
2022/03/03 03:09:16;;;;;;;16.92;9.15;;;;;;;0.85;53.40;93559.31;5031176;28;20052;-76
2022/03/03 03:11:42;;;;;;;21.83;10.07;;;;;;;0.84;53.20;93555.91;5013281;28;20037;-77
2022/03/03 03:14:07;;;;;;;14.75;9.18;;;;;;;1.17;52.85;93580.88;5015340;28;20276;-77
2022/03/03 03:16:33;;;;;;;16.27;9.07;;;;;;;1.08;52.52;93561.47;5009751;28;20029;-77
2022/03/03 03:18:58;;;;;;;14.23;9.95;;;;;;;1.02;52.32;93573.00;5016302;28;20045;-77
2022/03/03 03:21:23;;;;;;;14.95;9.48;;;;;;;1.07;52.48;93589.50;5009540;28;20115;-76
2022/03/03 03:23:49;;;;;;;18.63;10.05;;;;;;;1.02;52.70;93586.06;5016822;28;20114;-77
2022/03/03 03:26:14;;;;;;;19.95;10.00;;;;;;;0.97;52.82;93581.63;5012776;28;20033;-74
2022/03/03 03:28:40;;;;;;;17.75;10.00;;;;;;;0.84;52.99;93565.63;5014364;28;20298;-73
2022/03/03 03:31:05;;;;;;;14.65;9.02;;;;;;;0.93;53.03;93590.25;5014509;28;20049;-73
2022/03/03 03:33:31;;;;;;;15.30;9.15;;;;;;;0.78;53.38;93581.31;5010619;28;20045;-77
2022/03/03 03:35:57;;;;;;;13.85;9.38;;;;;;;0.58;54.08;93591.72;5009224;28;20041;-75
2022/03/03 03:38:22;;;;;;;18.50;10.20;;;;;;;0.50;54.33;93586.94;5015220;28;20582;-74
2022/03/03 03:40:47;;;;;;;20.45;9.82;;;;;;;0.46;53.92;93569.41;5012389;28;20024;-77
2022/03/03 03:43:13;;;;;;;18.08;9.77;;;;;;;-0.45;54.05;93433.06;5013550;28;20029;-77
2022/03/03 03:45:38;;;;;;;16.95;9.48;;;;;;;0.30;54.12;93598.13;5017656;28;20150;-77
2022/03/03 03:48:04;;;;;;;20.45;9.80;;;;;;;0.04;54.17;93551.97;5013877;28;20398;-77
2022/03/03 03:50:29;;;;;;;18.02;10.15;;;;;;;-0.29;54.78;93523.56;5015298;28;20033;-76
2022/03/03 03:52:55;;;;;;;20.15;10.43;;;;;;;0.11;54.75;93583.88;5012245;28;20455;-74
2022/03/03 03:55:20;;;;;;;12.65;8.52;;;;;;;0.15;54.88;93582.38;5013888;28;20507;-74
2022/03/03 03:57:46;;;;;;;19.65;10.95;;;;;;;0.06;54.73;93560.34;5011392;28;20503;-73
2022/03/03 04:00:13;;;;;;;22.50;10.60;;;;;;;-0.07;54.86;93563.41;5012622;28;20545;-75
2022/03/03 04:02:41;;;;;;;13.27;9.40;;;;;;;-0.03;55.15;93568.91;5011183;28;20045;-75
2022/03/03 04:05:06;;;;;;;17.75;10.85;;;;;;;0.09;54.74;93590.44;5009864;28;20025;-74
2022/03/03 04:07:32;;;;;;;14.65;8.18;;;;;;;0.01;55.02;93585.69;5007192;28;21034;-75
2022/03/03 04:09:58;;;;;;;17.17;9.55;;;;;;;0.02;55.11;93582.81;5026094;28;20562;-74
2022/03/03 04:12:23;;;;;;;19.88;10.85;;;;;;;-0.15;55.13;93559.44;5013631;28;20488;-77
2022/03/03 04:14:49;;;;;;;14.85;9.13;;;;;;;0.02;55.38;93577.56;5009430;28;20044;-76
2022/03/03 04:17:14;;;;;;;15.27;9.13;;;;;;;-0.20;55.21;93556.81;5008954;28;20032;-76
2022/03/03 04:19:40;;;;;;;16.02;10.50;;;;;;;-0.05;55.48;93563.16;5011431;28;20480;-76
2022/03/03 04:22:07;;;;;;;19.45;11.35;;;;;;;-0.22;55.79;93553.66;5012986;28;20056;-78
2022/03/03 04:24:32;;;;;;;18.50;10.65;;;;;;;-0.34;55.69;93529.53;5016964;28;20546;-76
2022/03/03 04:26:57;;;;;;;14.40;10.38;;;;;;;-0.39;55.97;93552.25;5019531;28;21093;-78
2022/03/03 04:29:24;;;;;;;20.67;9.77;;;;;;;-0.38;55.63;93557.19;5012415;28;20039;-78
2022/03/03 04:31:51;;;;;;;17.08;10.20;;;;;;;-0.51;56.00;93539.34;5012508;28;20025;-78
2022/03/03 04:34:17;;;;;;;21.58;10.18;;;;;;;-0.25;55.91;93576.91;5018235;28;20055;-77
2022/03/03 04:36:42;;;;;;;15.70;9.95;;;;;;;-0.43;56.17;93546.69;5006843;28;20729;-77
2022/03/03 04:39:08;;;;;;;12.77;8.55;;;;;;;-0.55;56.28;93512.16;5012932;28;20041;-76
2022/03/03 04:41:33;;;;;;;15.38;9.27;;;;;;;-0.13;55.56;93570.44;5016367;28;21013;-77
2022/03/03 04:44:00;;;;;;;15.18;9.05;;;;;;;-0.26;56.04;93573.50;5008548;28;20398;-75
2022/03/03 04:46:26;;;;;;;19.60;10.93;;;;;;;-0.14;56.17;93570.69;5020174;28;20668;-78
2022/03/03 04:48:51;;;;;;;15.77;9.20;;;;;;;-0.36;55.71;93526.38;5012454;28;20057;-76
2022/03/03 04:51:17;;;;;;;15.32;10.32;;;;;;;-0.16;56.18;93557.88;5006688;28;20391;-77
2022/03/03 04:53:42;;;;;;;16.45;8.68;;;;;;;-0.32;56.16;93561.41;5013659;28;20492;-76
2022/03/03 04:56:07;;;;;;;19.50;8.75;;;;;;;-0.29;55.90;93554.91;5011072;28;20044;-77
2022/03/03 04:58:33;;;;;;;14.90;8.40;;;;;;;-0.41;56.07;93569.97;5012880;28;20013;-74
2022/03/03 05:00:58;;;;;;;15.63;8.45;;;;;;;-0.37;56.14;93566.63;5026534;28;20040;-76
2022/03/03 05:03:25;;;;;;;12.88;7.88;;;;;;;-0.44;56.34;93566.06;5024593;28;20102;-74
2022/03/03 05:05:51;;;;;;;13.18;8.95;;;;;;;-0.54;56.69;93568.59;5017666;28;20167;-73
2022/03/03 05:08:16;;;;;;;17.05;8.20;;;;;;;-0.83;56.74;93536.75;5020084;28;20029;-75
2022/03/03 05:10:42;;;;;;;13.85;8.10;;;;;;;-0.64;57.28;93565.91;5014309;28;20028;-76
2022/03/03 05:13:08;;;;;;;16.30;8.40;;;;;;;-0.93;57.80;93521.03;5020092;28;20037;-76
2022/03/03 05:15:34;;;;;;;19.13;11.52;;;;;;;-0.89;57.93;93558.63;5023060;28;20558;-75
2022/03/03 05:18:05;;;;;;;17.52;9.35;;;;;;;-0.83;58.27;93562.88;5020883;28;20041;-72
2022/03/03 05:20:31;;;;;;;12.85;8.15;;;;;;;-0.63;58.19;93567.47;5026348;28;20037;-76
2022/03/03 05:22:56;;;;;;;16.48;9.18;;;;;;;-0.69;57.34;93556.19;5015860;28;20730;-73
2022/03/03 05:25:23;;;;;;;11.77;8.90;;;;;;;-0.68;57.56;93564.81;5008016;28;20044;-72
2022/03/03 05:27:50;;;;;;;17.67;9.38;;;;;;;-0.78;57.37;93556.91;5023160;28;20381;-76
2022/03/03 05:30:16;;;;;;;18.13;11.18;;;;;;;-0.65;57.36;93570.31;5014631;28;20038;-74
2022/03/03 05:32:41;;;;;;;15.60;8.90;;;;;;;-0.50;57.00;93577.50;5014664;28;20048;-75
2022/03/03 05:35:07;;;;;;;24.20;9.85;;;;;;;-0.42;56.91;93557.94;5015866;28;20029;-72
2022/03/03 05:37:34;;;;;;;14.02;9.00;;;;;;;-0.43;56.03;93551.94;5017617;28;20032;-75
2022/03/03 05:40:02;;;;;;;17.27;9.93;;;;;;;-0.37;55.91;93578.88;5008316;28;20526;-76
2022/03/03 05:42:31;;;;;;;17.77;10.40;;;;;;;-0.45;56.07;93567.09;5014776;28;20044;-73
2022/03/03 05:44:56;;;;;;;11.77;7.97;;;;;;;-0.45;55.90;93577.53;5017138;28;20041;-76
2022/03/03 05:47:28;;;;;;;21.67;9.65;;;;;;;-0.41;55.58;93575.19;5013199;28;20092;-76
2022/03/03 05:49:55;;;;;;;13.68;8.13;;;;;;;-0.63;55.80;93557.03;5021518;28;20029;-74
2022/03/03 05:52:20;;;;;;;17.85;9.65;;;;;;;-0.68;55.92;93559.59;5031875;28;20107;-75
2022/03/03 05:54:46;;;;;;;14.45;8.73;;;;;;;-0.60;55.85;93564.34;5007621;28;20495;-76
2022/03/03 05:57:25;;;;;;;14.48;8.25;;;;;;;-0.48;55.64;93575.41;5019159;28;20099;-72
2022/03/03 05:59:51;;;;;;;14.27;8.50;;;;;;;-0.46;55.73;93577.78;5022190;28;20270;-77
2022/03/03 06:02:20;;;;;;;12.63;8.32;;;;;;;-0.72;56.13;93548.06;5011549;28;20071;-73
2022/03/03 06:04:48;;;;;;;15.48;7.50;;;;;;;-0.54;55.92;93586.88;5019240;28;20498;-75
2022/03/03 06:07:23;;;;;;;15.60;9.48;;;;;;;-0.84;56.34;93555.28;5021175;28;20102;-74
2022/03/03 06:09:52;;;;;;;19.33;8.63;;;;;;;-0.69;56.32;93573.69;5009370;28;20782;-76
2022/03/03 06:12:25;;;;;;;12.35;8.75;;;;;;;-0.58;56.11;93576.13;5022930;28;21143;-76
2022/03/03 06:14:53;;;;;;;16.23;9.88;;;;;;;-0.59;55.96;93579.00;5012922;28;20086;-78
2022/03/03 06:17:23;;;;;;;15.82;8.93;;;;;;;-0.64;56.47;93571.13;5016977;28;20029;-76
2022/03/03 06:19:52;;;;;;;14.93;8.40;;;;;;;-0.41;55.95;93575.19;5015151;28;20029;-72
2022/03/03 06:22:18;;;;;;;23.27;11.13;;;;;;;-0.32;55.59;93569.25;5015308;28;20392;-75
2022/03/03 06:24:44;;;;;;;20.83;11.43;;;;;;;-0.52;55.63;93575.13;5019572;28;20057;-75
2022/03/03 06:27:09;;;;;;;15.80;9.10;;;;;;;-0.57;55.50;93542.94;5022209;28;20048;-75
2022/03/03 06:29:36;;;;;;;13.77;8.70;;;;;;;-0.58;55.05;93575.34;5009184;28;20148;-74
2022/03/03 06:32:02;;;;;;;13.27;8.75;;;;;;;-0.73;55.14;93562.97;5019829;28;20025;-75
2022/03/03 06:34:28;;;;;;;16.30;9.45;;;;;;;-0.90;55.80;93556.25;5009572;28;20040;-75
2022/03/03 06:36:54;;;;;;;14.30;7.75;;;;;;;-0.71;55.38;93573.94;5016263;28;20037;-76
2022/03/03 06:39:24;;;;;;;15.27;8.27;;;;;;;-0.78;55.08;93575.19;5015604;28;20041;-72
2022/03/03 06:41:51;;;;;;;13.48;7.70;;;;;;;-0.86;55.60;93562.56;5024274;28;20693;-77
2022/03/03 06:44:18;;;;;;;10.95;6.60;;;;;;;-1.08;55.43;93533.94;5010856;28;20067;-75
2022/03/03 06:46:44;;;;;;;17.25;8.70;;;;;;;-0.95;55.34;93551.78;5019260;28;20151;-76
2022/03/03 06:49:14;;;;;;;19.63;8.95;;;;;;;-0.83;55.51;93583.75;5017464;28;20536;-72
2022/03/03 06:51:43;;;;;;;14.55;9.07;;;;;;;-0.82;55.30;93567.03;5021267;28;20036;-77
2022/03/03 06:54:21;;;;;;;17.95;9.73;;;;;;;-0.91;55.27;93550.25;5018829;28;20052;-72
2022/03/03 06:56:52;;;;;;;19.88;10.45;;;;;;;-0.72;55.25;93558.50;5022889;28;20115;-74
2022/03/03 06:59:22;;;;;;;12.63;7.63;;;;;;;-0.56;54.74;93586.31;5010342;28;20120;-76
2022/03/03 07:01:49;;;;;;;16.85;9.32;;;;;;;-0.47;54.58;93582.22;5024752;28;20040;-76
2022/03/03 07:04:16;;;;;;;19.80;10.35;;;;;;;-0.35;54.50;93593.28;5012718;28;21285;-75
2022/03/03 07:06:42;;;;;;;17.65;8.20;;;;;;;-0.46;54.17;93577.78;5022567;28;20090;-76
2022/03/03 07:09:08;;;;;;;16.52;9.68;;;;;;;-0.44;53.97;93579.13;5018662;28;20044;-76
2022/03/03 07:11:36;;;;;;;17.77;9.80;;;;;;;-0.17;54.08;93597.31;5008973;28;20629;-76
2022/03/03 07:14:02;;;;;;;16.38;10.38;;;;;;;-0.17;53.81;93581.63;5015529;28;20423;-73
2022/03/03 07:16:53;;;;;;;14.63;9.00;;;;;;;-0.13;53.28;93593.16;5010389;28;20175;-76
2022/03/03 07:19:37;;;;;;;13.85;8.43;;;;;;;-0.08;53.07;93591.38;5014685;28;20044;-74
2022/03/03 07:22:11;;;;;;;12.55;7.85;;;;;;;0.06;52.96;93585.69;5034741;28;20037;-75
2022/03/03 07:24:43;;;;;;;16.95;10.55;;;;;;;0.16;52.67;93583.91;5030772;28;20036;-77
2022/03/03 07:27:17;;;;;;;19.40;10.13;;;;;;;0.02;52.88;93592.47;5019608;28;20041;-77
2022/03/03 07:29:46;;;;;;;17.98;9.00;;;;;;;-0.18;52.70;93565.16;5009171;28;20634;-73
2022/03/03 07:32:16;;;;;;;19.58;10.07;;;;;;;-0.01;52.69;93579.91;5014819;28;20029;-74
2022/03/03 07:34:44;;;;;;;15.43;9.35;;;;;;;0.07;52.43;93571.56;5018525;28;21234;-73
2022/03/03 07:37:17;;;;;;;15.52;8.95;;;;;;;0.01;52.50;93556.94;5032269;28;20045;-74
2022/03/03 07:39:45;;;;;;;17.77;9.18;;;;;;;0.11;52.80;93549.09;5014779;28;20094;-73
2022/03/03 07:42:18;;;;;;;14.93;8.55;;;;;;;0.30;52.13;93550.28;5014083;28;20041;-74
2022/03/03 07:44:45;;;;;;;16.42;9.10;;;;;;;0.51;52.08;93557.13;5016314;28;20041;-73
2022/03/03 07:47:11;;;;;;;15.25;8.60;;;;;;;0.57;51.96;93558.72;5019111;28;20039;-72
2022/03/03 07:49:40;;;;;;;21.88;10.52;;;;;;;0.71;51.15;93545.94;5008408;28;20044;-72
2022/03/03 07:52:07;;;;;;;13.40;7.40;;;;;;;0.60;50.79;93565.25;5020739;28;20073;-74
2022/03/03 07:54:33;;;;;;;14.57;8.48;;;;;;;0.61;51.06;93580.72;5007741;28;20052;-75
2022/03/03 07:57:00;;;;;;;12.82;8.18;;;;;;;0.65;51.42;93573.13;5019624;28;20396;-72
2022/03/03 07:59:32;;;;;;;13.75;8.05;;;;;;;0.86;50.80;93582.63;5008128;28;20056;-70
2022/03/03 08:02:00;;;;;;;17.65;8.00;;;;;;;0.88;50.16;93582.38;5017433;28;20120;-73
2022/03/03 08:04:32;;;;;;;15.07;8.18;;;;;;;1.00;49.81;93588.94;5014021;28;20904;-70
2022/03/03 08:07:04;;;;;;;17.92;8.85;;;;;;;0.76;50.60;93546.75;5021636;28;20034;-70
2022/03/03 08:09:36;;;;;;;17.42;8.18;;;;;;;1.09;49.82;93583.97;5010993;28;20052;-75
2022/03/03 08:12:05;;;;;;;17.77;8.00;;;;;;;1.11;49.44;93568.81;5010633;28;20045;-73
2022/03/03 08:14:31;;;;;;;12.63;6.88;;;;;;;1.24;49.12;93568.28;5011798;28;20503;-72
2022/03/03 08:16:56;;;;;;;20.00;9.20;;;;;;;1.34;49.49;93581.41;5007747;28;20484;-71
2022/03/03 08:19:22;;;;;;;15.27;8.13;;;;;;;1.40;48.69;93579.56;5010556;28;20453;-73
2022/03/03 08:21:49;;;;;;;13.52;8.32;;;;;;;1.21;48.26;93560.97;5010205;28;20041;-73
2022/03/03 08:24:14;;;;;;;14.10;8.43;;;;;;;1.27;48.30;93586.13;5024433;28;20075;-72
2022/03/03 08:26:42;;;;;;;15.30;9.38;;;;;;;1.21;48.42;93581.91;5018616;28;20128;-71
2022/03/03 08:29:08;;;;;;;16.15;8.45;;;;;;;1.30;48.54;93579.56;5013924;28;20139;-73
2022/03/03 08:31:42;;;;;;;15.55;8.35;;;;;;;1.32;47.94;93582.72;5010162;28;20132;-72
2022/03/03 08:34:47;;;;;;;12.77;7.57;;;;;;;1.15;48.10;93564.63;5010463;28;20037;-72
2022/03/03 08:37:38;;;;;;;10.82;7.38;;;;;;;1.23;48.10;93567.50;5006596;28;20392;-72
2022/03/03 08:40:09;;;;;;;11.10;7.25;;;;;;;1.41;47.91;93575.91;5010536;28;20037;-70
2022/03/03 08:42:37;;;;;;;13.23;7.78;;;;;;;1.34;48.04;93570.91;5014488;28;20098;-73
2022/03/03 08:45:06;;;;;;;14.77;8.10;;;;;;;1.13;48.08;93570.09;5016087;28;20073;-72
2022/03/03 08:47:32;;;;;;;19.08;8.65;;;;;;;1.20;48.71;93585.56;5011303;28;20077;-71
2022/03/03 08:50:08;;;;;;;11.18;6.97;;;;;;;0.83;48.46;93509.06;5016384;28;20572;-70
2022/03/03 08:52:37;;;;;;;16.20;8.82;;;;;;;1.16;49.31;93558.34;5021382;28;20033;-71
2022/03/03 08:55:03;;;;;;;15.25;8.35;;;;;;;1.32;48.70;93578.28;5021147;28;20187;-71
2022/03/03 08:57:29;;;;;;;11.07;7.28;;;;;;;1.46;48.60;93583.78;5018867;28;20041;-76
2022/03/03 08:59:54;;;;;;;13.63;8.70;;;;;;;1.45;48.17;93580.38;5028572;28;20044;-76
2022/03/03 09:02:20;;;;;;;15.50;9.63;;;;;;;1.40;48.19;93569.88;5015695;28;20033;-75
2022/03/03 09:04:46;;;;;;;17.00;8.77;;;;;;;1.45;48.08;93582.97;5022919;28;20023;-76
2022/03/03 09:07:13;;;;;;;18.88;7.75;;;;;;;1.30;48.67;93550.75;5018054;28;20040;-72
2022/03/03 09:09:39;;;;;;;14.57;7.70;;;;;;;1.50;48.96;93563.84;5019396;28;20095;-78
2022/03/03 09:12:05;;;;;;;15.27;8.63;;;;;;;1.63;48.75;93560.69;5022164;28;20068;-74
2022/03/03 09:14:31;;;;;;;15.55;7.97;;;;;;;1.88;48.20;93571.19;5024775;28;20033;-76
2022/03/03 09:16:56;;;;;;;14.30;9.23;;;;;;;1.89;47.58;93551.00;5018197;28;20060;-76
2022/03/03 09:19:22;;;;;;;19.33;9.88;;;;;;;1.89;48.00;93574.59;5008710;28;20035;-77
2022/03/03 09:21:47;;;;;;;11.85;7.93;;;;;;;1.89;47.94;93556.25;5018081;28;20083;-76
2022/03/03 09:24:13;;;;;;;16.42;8.73;;;;;;;1.96;47.35;93562.00;5025998;28;20037;-74
2022/03/03 09:26:38;;;;;;;14.88;8.00;;;;;;;1.95;47.44;93555.19;5024497;28;20033;-77
2022/03/03 09:29:04;;;;;;;14.45;8.63;;;;;;;2.10;47.53;93563.03;5026060;28;20919;-76
2022/03/03 09:31:29;;;;;;;17.20;9.52;;;;;;;1.83;47.23;93544.94;5021032;28;20025;-75
2022/03/03 09:33:56;;;;;;;11.90;7.57;;;;;;;2.05;47.46;93573.53;5024384;28;20453;-73
2022/03/03 09:36:22;;;;;;;12.80;7.60;;;;;;;1.92;47.33;93558.31;5023812;28;20173;-75
2022/03/03 09:38:47;;;;;;;16.13;8.60;;;;;;;2.23;46.75;93582.66;5026032;28;20030;-76
2022/03/03 09:41:13;;;;;;;12.45;7.32;;;;;;;2.39;47.00;93581.59;5019812;28;20124;-76
2022/03/03 09:43:42;;;;;;;12.52;8.20;;;;;;;2.27;47.13;93553.00;5019902;28;20431;-76
2022/03/03 09:46:08;;;;;;;16.52;8.13;;;;;;;2.32;47.25;93552.97;5012601;28;20051;-76
2022/03/03 09:48:35;;;;;;;15.27;8.68;;;;;;;2.50;46.76;93573.38;5025807;28;20454;-76
2022/03/03 09:51:00;;;;;;;17.38;10.20;;;;;;;2.47;45.86;93567.91;5018212;28;20052;-76
2022/03/03 09:53:26;;;;;;;17.05;10.20;;;;;;;2.43;46.38;93572.91;5034059;28;20403;-76
2022/03/03 09:55:52;;;;;;;16.38;9.13;;;;;;;2.44;45.80;93563.97;5028669;28;20049;-76
2022/03/03 09:58:18;;;;;;;13.05;7.72;;;;;;;2.48;45.48;93559.75;5028751;28;20391;-75
2022/03/03 10:00:46;;;;;;;15.27;8.60;;;;;;;2.58;45.27;93560.78;5025800;28;20068;-72
2022/03/03 10:03:14;;;;;;;15.68;8.30;;;;;;;2.35;45.77;93549.06;5028208;28;20092;-72
2022/03/03 10:05:45;;;;;;;8.00;6.05;;;;;;;2.46;45.91;93561.84;5025783;28;20037;-75
2022/03/03 10:08:14;;;;;;;21.58;12.30;;;;;;;2.49;45.61;93535.09;5020519;28;20041;-74
2022/03/03 10:10:48;;;;;;;17.67;8.55;;;;;;;2.64;45.33;93542.13;5029264;28;20087;-76
2022/03/03 10:13:16;;;;;;;16.87;7.60;;;;;;;2.60;44.80;93548.94;5019772;28;20448;-73
2022/03/03 10:15:43;;;;;;;13.77;7.07;;;;;;;2.41;45.36;93561.88;5020878;28;20793;-76
2022/03/03 10:18:16;;;;;;;17.88;8.32;;;;;;;2.25;45.49;93551.72;5019860;28;20029;-76
2022/03/03 10:20:53;;;;;;;14.15;7.57;;;;;;;2.32;46.28;93555.59;5019161;28;20032;-76
2022/03/03 10:23:24;;;;;;;16.70;8.15;;;;;;;2.14;46.64;93548.31;5032548;28;20136;-76
2022/03/03 10:25:52;;;;;;;17.17;8.40;;;;;;;2.19;46.30;93565.88;5024402;28;20123;-75
2022/03/03 10:28:19;;;;;;;12.10;7.95;;;;;;;2.32;46.79;93562.69;5021175;28;20041;-77
2022/03/03 10:31:07;;;;;;;11.63;6.57;;;;;;;2.37;45.77;93568.72;5016492;28;20159;-76
2022/03/03 10:33:35;;;;;;;18.67;7.95;;;;;;;2.33;45.18;93570.31;5022090;28;20155;-77
2022/03/03 10:36:08;;;;;;;17.52;9.18;;;;;;;2.16;46.67;93559.31;5023947;28;20040;-77
2022/03/03 10:38:53;;;;;;;14.55;8.90;;;;;;;2.33;45.42;93559.81;5022018;28;20455;-76
2022/03/03 10:41:36;;;;;;;13.32;8.13;;;;;;;2.27;45.90;93557.47;5025532;28;20033;-76
2022/03/03 10:44:26;;;;;;;15.68;7.75;;;;;;;2.32;46.57;93515.47;4984234;28;20074;-73
2022/03/03 10:47:15;;;;;;;9.85;7.03;;;;;;;2.63;44.86;93542.38;5019418;28;20136;-76
2022/03/03 10:49:43;;;;;;;13.40;7.35;;;;;;;2.30;44.91;93528.09;5021490;28;20048;-77
2022/03/03 10:52:12;;;;;;;10.27;7.43;;;;;;;2.47;45.57;93537.19;5024776;28;20057;-76
2022/03/03 10:54:51;;;;;;;14.05;7.60;;;;;;;2.60;46.12;93532.41;5021667;28;20078;-76
2022/03/03 10:57:38;;;;;;;15.27;8.35;;;;;;;2.63;45.21;93539.75;5024994;28;20032;-75
2022/03/03 11:00:20;;;;;;;15.45;8.65;;;;;;;2.51;45.59;93546.09;5024554;28;20052;-76
2022/03/03 11:02:51;;;;;;;15.60;8.90;;;;;;;2.57;45.70;93546.06;5017826;28;20319;-75
2022/03/03 11:05:18;;;;;;;12.68;8.55;;;;;;;2.30;45.45;93510.50;5020871;28;20055;-76
2022/03/03 11:07:47;;;;;;;20.42;9.82;;;;;;;2.48;45.59;93549.25;5020539;28;20049;-77
2022/03/03 11:10:19;;;;;;;16.65;9.02;;;;;;;2.41;46.22;93512.00;5032963;28;20059;-75
2022/03/03 11:12:45;;;;;;;10.90;6.82;;;;;;;2.71;45.75;93542.59;4989084;28;20111;-75
2022/03/03 11:15:12;;;;;;;12.30;9.15;;;;;;;2.67;45.07;93515.31;5006997;28;20048;-76
2022/03/03 11:17:39;;;;;;;13.23;7.20;;;;;;;2.73;45.20;93519.47;5020047;28;20750;-76
2022/03/03 11:20:12;;;;;;;13.43;8.63;;;;;;;2.79;45.05;93533.38;5018797;28;20091;-74
2022/03/03 11:22:40;;;;;;;16.30;8.77;;;;;;;2.84;44.49;93509.72;5017490;28;20075;-76
2022/03/03 11:25:08;;;;;;;11.45;7.53;;;;;;;3.15;44.89;93545.22;5033373;28;20043;-76
2022/03/03 11:27:35;;;;;;;14.02;8.40;;;;;;;3.05;44.76;93516.38;5023108;28;20033;-72
2022/03/03 11:30:15;;;;;;;16.23;8.73;;;;;;;3.32;44.34;93540.38;5012054;28;20132;-76
2022/03/03 11:32:40;;;;;;;16.08;9.23;;;;;;;3.22;44.43;93531.78;5015515;28;20037;-75
2022/03/03 11:35:08;;;;;;;21.02;8.88;;;;;;;3.25;44.21;93545.16;5016819;28;20256;-75